^^
Datos históricos de la estación: Murcia-Puente Tocinos
Diario Informe para Diciembre 12, 2019 Unidades:  Métrico    Ingés   Ambas
Diario Semanal Mensual Anual
  Máxima: Mínima: Promedio:
Temperatura: 15.9 °C 10.2 °C 13 °C
Punto de rocio: 5.3 °C 1.8 °C 3.1 °C
Humedad: 63% 39% 52%
Velocidad viento: 21.7km/h 0km/h 9.3km/h
Racha viento: 40.7km/h - -
Viento- - OSO
Presión: 1023.0 hPa 1012.4 hPa -
Precipitación: 0.0 mm    
 
 
Tabla de datos para Diciembre 12, 2019
Hora Temperatura Punto de rocio Presión Viento Velocidad viento Racha viento Humedad Intensidad lluvia(por hora) Nubes
00:04 12.9 °C 3.3 °C 1022.9 hPa ONO 19.7 km/h 35.4 km/h 52% 0.0 mm
00:09 12.9 °C 3.3 °C 1023.0 hPa ONO 18 km/h 35.2 km/h 52% 0.0 mm
00:14 12.9 °C 3.4 °C 1023.0 hPa ONO 18.2 km/h 35.4 km/h 52.3% 0.0 mm
00:19 12.8 °C 3.5 °C 1023.0 hPa ONO 18.4 km/h 27.8 km/h 53% 0.0 mm
00:24 12.7 °C 3.4 °C 1023.0 hPa ONO 17.3 km/h 30.6 km/h 53% 0.0 mm
00:29 12.7 °C 3.3 °C 1022.8 hPa ONO 16.4 km/h 30.6 km/h 53% 0.0 mm
00:34 12.6 °C 3.3 °C 1022.8 hPa ONO 16.4 km/h 27.8 km/h 53% 0.0 mm
00:39 12.6 °C 3.2 °C 1022.9 hPa ONO 16.4 km/h 27.4 km/h 53% 0.0 mm
00:44 12.4 °C 3.2 °C 1022.9 hPa Oeste 15.5 km/h 24.1 km/h 53.7% 0.0 mm
00:49 12.3 °C 3.2 °C 1022.9 hPa ONO 14.8 km/h 24.5 km/h 54% 0.0 mm
00:54 12.2 °C 3.2 °C 1022.9 hPa ONO 14.3 km/h 24.1 km/h 54% 0.0 mm
00:59 12.2 °C 3.1 °C 1022.7 hPa ONO 14 km/h 27.8 km/h 54% 0.0 mm
01:04 12.1 °C 3.1 °C 1022.7 hPa ONO 16 km/h 27.8 km/h 54% 0.0 mm
01:09 12.1 °C 3.1 °C 1022.7 hPa ONO 17.2 km/h 30.6 km/h 54% 0.0 mm
01:14 12.2 °C 3.2 °C 1022.2 hPa ONO 17.9 km/h 30.6 km/h 54% 0.0 mm
01:19 12.2 °C 3.2 °C 1022.2 hPa ONO 18.4 km/h 25.7 km/h 54% 0.0 mm
01:24 12.2 °C 3.1 °C 1022.4 hPa Oeste 16.8 km/h 24.1 km/h 54% 0.0 mm
01:29 12.1 °C 3 °C 1022.4 hPa ONO 15.6 km/h 23.3 km/h 54% 0.0 mm
01:34 11.9 °C 2.9 °C 1022.4 hPa Oeste 14.1 km/h 24.1 km/h 54% 0.0 mm
01:39 11.9 °C 2.9 °C 1022.4 hPa Oeste 13 km/h 20.4 km/h 54.2% 0.0 mm
01:44 11.8 °C 3 °C 1022.3 hPa OSO 11.9 km/h 20.9 km/h 55% 0.0 mm
01:49 11.7 °C 2.9 °C 1022.3 hPa OSO 11.1 km/h 14.5 km/h 55% 0.0 mm
01:54 11.6 °C 2.8 °C 1022.3 hPa Oeste 8.7 km/h 11.3 km/h 55% 0.0 mm
01:59 11.6 °C 3 °C 1022.2 hPa Oeste 6.9 km/h 9.7 km/h 55.6% 0.0 mm
02:04 11.6 °C 2.9 °C 1022.2 hPa NO 5.1 km/h 8 km/h 55.4% 0.0 mm
02:09 11.5 °C 3 °C 1022.2 hPa NO 3.9 km/h 8 km/h 55.9% 0.0 mm
02:14 11.5 °C 2.8 °C 1022.1 hPa NO 4.3 km/h 10 km/h 55.1% 0.0 mm
02:19 11.5 °C 2.8 °C 1022.1 hPa NNO 4.7 km/h 10 km/h 55.4% 0.0 mm
02:24 11.5 °C 2.6 °C 1022.1 hPa NO 5.7 km/h 21.7 km/h 54.4% 0.0 mm
02:29 12 °C 2.4 °C 1021.9 hPa Oeste 6.5 km/h 33.5 km/h 52% 0.0 mm
02:34 12.6 °C 2.4 °C 1021.9 hPa ONO 11.9 km/h 40.7 km/h 49.8% 0.0 mm
02:39 12.7 °C 2.2 °C 1021.9 hPa Oeste 15.6 km/h 40.2 km/h 49.2% 0.0 mm
02:44 12.6 °C 2.2 °C 1021.8 hPa Oeste 12.4 km/h 24.5 km/h 49% 0.0 mm
02:49 12.6 °C 2.2 °C 1021.8 hPa Oeste 10 km/h 24.1 km/h 49% 0.0 mm
02:54 12.6 °C 2 °C 1022.0 hPa OSO 10 km/h 24.1 km/h 48.5% 0.0 mm
02:59 12.8 °C 1.9 °C 1022.0 hPa OSO 10 km/h 24.1 km/h 47.3% 0.0 mm
03:04 12.8 °C 2 °C 1022.0 hPa SO 10.2 km/h 20.9 km/h 47.6% 0.0 mm
03:09 12.7 °C 2 °C 1022.0 hPa OSO 10.3 km/h 19.3 km/h 48.1% 0.0 mm
03:14 12.6 °C 2.1 °C 1022.0 hPa Oeste 8.8 km/h 25.6 km/h 48.8% 0.0 mm
03:19 12.6 °C 1.9 °C 1022.0 hPa OSO 7.6 km/h 29.8 km/h 48.1% 0.0 mm
03:24 12.8 °C 2 °C 1022.0 hPa Oeste 9.6 km/h 30.6 km/h 48% 0.0 mm
03:29 12.7 °C 2.1 °C 1021.7 hPa SSO 11.1 km/h 22.5 km/h 48.3% 0.0 mm
03:34 12.3 °C 2 °C 1021.7 hPa Sur 9.7 km/h 13 km/h 49.3% 0.0 mm
03:39 12.2 °C 2.1 °C 1021.8 hPa SSO 8.7 km/h 12.9 km/h 50.1% 0.0 mm
03:44 11.9 °C 2.1 °C 1021.8 hPa OSO 7 km/h 9.7 km/h 51.2% 0.0 mm
03:49 11.7 °C 2.2 °C 1021.8 hPa OSO 5.8 km/h 11.9 km/h 51.8% 0.0 mm
03:54 11.7 °C 2.2 °C 1021.8 hPa Oeste 5.1 km/h 11.3 km/h 52% 0.0 mm
03:59 11.7 °C 2.2 °C 1021.8 hPa Oeste 4.7 km/h 9.7 km/h 52% 0.0 mm
04:04 11.7 °C 2.1 °C 1021.8 hPa ONO 4.8 km/h 9.7 km/h 52% 0.0 mm
04:09 11.6 °C 2.1 °C 1021.9 hPa Oeste 5 km/h 25.9 km/h 52% 0.0 mm
04:14 11.8 °C 2.2 °C 1021.9 hPa Oeste 7.1 km/h 25.7 km/h 52% 0.0 mm
04:19 11.8 °C 2.3 °C 1021.9 hPa Oeste 8.7 km/h 34.6 km/h 51.9% 0.0 mm
04:24 12.1 °C 2.1 °C 1021.9 hPa Oeste 11.8 km/h 35.4 km/h 50.4% 0.0 mm
04:29 12.3 °C 2.2 °C 1021.9 hPa Oeste 14 km/h 35.4 km/h 50% 0.0 mm
04:34 12.2 °C 2.2 °C 1021.9 hPa Oeste 15.8 km/h 30.6 km/h 50.4% 0.0 mm
04:39 12.1 °C 2.3 °C 1022.0 hPa OSO 17.2 km/h 24.1 km/h 51% 0.0 mm
04:44 12 °C 2.2 °C 1022.0 hPa Oeste 11.5 km/h 12.9 km/h 51% 0.0 mm
04:49 11.9 °C 2.1 °C 1022.0 hPa SO 7.6 km/h 15.6 km/h 51% 0.0 mm
04:54 12 °C 2.1 °C 1022.0 hPa SSO 7.2 km/h 16.1 km/h 51% 0.0 mm
04:59 12 °C 2.2 °C 1021.6 hPa OSO 6.9 km/h 14.5 km/h 51% 0.0 mm
05:04 12 °C 2.2 °C 1021.6 hPa OSO 7.8 km/h 16.7 km/h 51% 0.0 mm
05:09 12.1 °C 2.3 °C 1021.6 hPa OSO 8.4 km/h 16.1 km/h 51% 0.0 mm
05:14 12 °C 2.2 °C 1021.3 hPa Oeste 7.9 km/h 11.9 km/h 51% 0.0 mm
05:19 11.9 °C 2.1 °C 1021.3 hPa OSO 7.6 km/h 11.3 km/h 51% 0.0 mm
05:24 11.9 °C 2.1 °C 1021.3 hPa SO 6.6 km/h 13.7 km/h 51% 0.0 mm
05:29 11.9 °C 2.1 °C 1021.0 hPa SO 5.8 km/h 14.5 km/h 51.1% 0.0 mm
05:34 11.7 °C 2.2 °C 1021.0 hPa Sur 6.4 km/h 11.3 km/h 52% 0.0 mm
05:39 11.4 °C 2.2 °C 1021.2 hPa Sur 6.9 km/h 9.7 km/h 53.1% 0.0 mm
05:44 11.2 °C 2.2 °C 1021.2 hPa SSO 5.8 km/h 9.3 km/h 54% 0.0 mm
05:49 11 °C 2.3 °C 1021.2 hPa SO 5 km/h 9.7 km/h 54.9% 0.0 mm
05:54 11 °C 2.3 °C 1021.4 hPa SO 5 km/h 9.7 km/h 55% 0.0 mm
05:59 11 °C 2.3 °C 1021.4 hPa SO 5 km/h 14.8 km/h 54.9% 0.0 mm
06:04 11.2 °C 2.2 °C 1021.4 hPa OSO 6.1 km/h 14.5 km/h 54% 0.0 mm
06:09 11.3 °C 2.3 °C 1021.4 hPa Oeste 6.9 km/h 13 km/h 54% 0.0 mm
06:14 11.4 °C 2.4 °C 1021.2 hPa Oeste 7.3 km/h 14.8 km/h 54% 0.0 mm
06:19 11.5 °C 2.3 °C 1021.2 hPa Oeste 7.6 km/h 22.5 km/h 53.3% 0.0 mm
06:24 11.6 °C 2.3 °C 1021.2 hPa Oeste 9 km/h 22.5 km/h 52.8% 0.0 mm
06:29 11.7 °C 2.2 °C 1021.0 hPa OSO 10 km/h 18.5 km/h 52.1% 0.0 mm
06:34 11.7 °C 2.4 °C 1021.0 hPa SSO 9.1 km/h 19.3 km/h 52.7% 0.0 mm
06:39 11.6 °C 2.4 °C 1021.0 hPa SSE 8.4 km/h 11.9 km/h 53.3% 0.0 mm
06:44 11 °C 2.3 °C 1020.7 hPa Sur 7.5 km/h 12.2 km/h 54.9% 0.0 mm
06:49 10.5 °C 2.3 °C 1020.7 hPa SSO 6.9 km/h 13 km/h 56.7% 0.0 mm
06:54 10.3 °C 2.3 °C 1020.9 hPa SSO 7.8 km/h 12.9 km/h 57.3% 0.0 mm
06:59 10.3 °C 2.4 °C 1020.9 hPa SSO 8.4 km/h 11.3 km/h 58% 0.0 mm
07:04 10.3 °C 2.4 °C 1020.9 hPa SSO 7.9 km/h 11.3 km/h 58% 0.0 mm
07:09 10.3 °C 2.4 °C 1020.9 hPa SSO 7.6 km/h 11.3 km/h 58% 0.0 mm
07:14 10.3 °C 2.4 °C 1020.6 hPa SO 6.9 km/h 11.1 km/h 58% 0.0 mm
07:19 10.3 °C 2.4 °C 1020.6 hPa SO 6.5 km/h 11.3 km/h 58% 0.0 mm
07:24 10.3 °C 2.4 °C 1020.6 hPa SO 6.5 km/h 9.7 km/h 58% 0.0 mm
07:29 10.3 °C 2.4 °C 1020.5 hPa SO 6.5 km/h 10 km/h 58% 0.0 mm
07:34 10.3 °C 2.5 °C 1020.5 hPa SO 6.1 km/h 11.1 km/h 58.5% 0.0 mm
07:39 10.2 °C 2.6 °C 1020.6 hPa SO 5.8 km/h 11.3 km/h 59% 0.0 mm
07:44 10.2 °C 2.6 °C 1020.6 hPa SO 6.4 km/h 11.3 km/h 59% 0.0 mm
07:49 10.2 °C 2.6 °C 1020.6 hPa SSO 6.9 km/h 11.9 km/h 59% 0.0 mm
07:54 10.2 °C 2.6 °C 1020.6 hPa SSO 6.9 km/h 13 km/h 59% 0.0 mm
07:59 10.2 °C 2.6 °C 1020.5 hPa SSO 6.9 km/h 13.7 km/h 59% 0.0 mm
08:04 10.2 °C 2.6 °C 1020.5 hPa OSO 8 km/h 14.5 km/h 59% 0.0 mm
08:09 10.2 °C 2.4 °C 1020.7 hPa SO 8.7 km/h 11.3 km/h 58.4% 0.0 mm
08:14 10.2 °C 2.4 °C 1020.7 hPa SSO 6.5 km/h 11.1 km/h 58.2% 0.0 mm
08:19 10.3 °C 2.4 °C 1020.7 hPa SSO 5 km/h 11.3 km/h 58% 0.0 mm
08:24 10.3 °C 2.5 °C 1020.8 hPa SSO 5.8 km/h 11.1 km/h 58% 0.0 mm
08:29 10.4 °C 2.5 °C 1020.8 hPa Sur 6.5 km/h 11.3 km/h 58% 0.0 mm
08:34 10.4 °C 2.5 °C 1020.8 hPa SO 6.5 km/h 9.7 km/h 58% 0.0 mm
08:39 10.4 °C 2.5 °C 1020.8 hPa SO 6.5 km/h 11.1 km/h 58% 0.0 mm
08:44 10.4 °C 2.5 °C 1020.8 hPa SO 6.7 km/h 11.3 km/h 58% 0.0 mm
08:49 10.4 °C 2.5 °C 1020.8 hPa OSO 6.9 km/h 11.3 km/h 58% 0.0 mm
08:54 10.4 °C 2.6 °C 1021.0 hPa SO 6.7 km/h 11.3 km/h 58.6% 0.0 mm
08:59 10.4 °C 2.7 °C 1021.0 hPa OSO 6.5 km/h 11.1 km/h 59% 0.0 mm
09:04 10.3 °C 2.6 °C 1021.0 hPa SO 6.8 km/h 13 km/h 59% 0.0 mm
09:09 10.4 °C 2.7 °C 1021.1 hPa SO 6.9 km/h 13 km/h 58.8% 0.0 mm
09:14 10.6 °C 2.6 °C 1021.1 hPa SO 7.7 km/h 14 km/h 57.7% 0.0 mm
09:19 10.8 °C 2.6 °C 1021.1 hPa SSO 8.4 km/h 14.5 km/h 57% 0.0 mm
09:24 10.8 °C 2.7 °C 1021.1 hPa SSO 8.4 km/h 14.5 km/h 57% 0.0 mm
09:29 10.9 °C 2.7 °C 1020.8 hPa SSO 8.4 km/h 13.7 km/h 57% 0.0 mm
09:34 10.9 °C 2.6 °C 1020.8 hPa SO 7.9 km/h 14.8 km/h 56.7% 0.0 mm
09:39 10.9 °C 2.5 °C 1020.8 hPa SO 7.6 km/h 14.8 km/h 56.1% 0.0 mm
09:44 11 °C 2.5 °C 1020.7 hPa SO 8.2 km/h 18 km/h 56% 0.0 mm
09:49 11 °C 2.4 °C 1020.7 hPa SO 8.7 km/h 19.3 km/h 55.4% 0.0 mm
09:54 11 °C 2.4 °C 1020.9 hPa SO 9.6 km/h 19.3 km/h 55.4% 0.0 mm
09:59 11.2 °C 2.5 °C 1020.9 hPa SO 10.3 km/h 18.5 km/h 55.1% 0.0 mm
10:04 11.3 °C 2.3 °C 1020.9 hPa SO 9.8 km/h 19.3 km/h 53.6% 0.0 mm
10:09 11.6 °C 2.2 °C 1020.9 hPa SSO 9.5 km/h 19.3 km/h 52.5% 0.0 mm
10:14 11.8 °C 2.3 °C 1020.8 hPa SSO 9.5 km/h 14.5 km/h 52% 0.0 mm
10:19 12 °C 2.4 °C 1020.8 hPa SSO 9.5 km/h 13 km/h 51.8% 0.0 mm
10:24 12.1 °C 2.3 °C 1020.9 hPa SSO 8 km/h 13 km/h 51.2% 0.0 mm
10:29 12.1 °C 2.5 °C 1020.9 hPa SSO 6.9 km/h 13 km/h 51.6% 0.0 mm
10:34 12.2 °C 2.6 °C 1020.9 hPa SSO 7.8 km/h 14.8 km/h 51.9% 0.0 mm
10:39 12.2 °C 2.7 °C 1020.9 hPa Sur 8.4 km/h 14.5 km/h 52.3% 0.0 mm
10:44 12.2 °C 2.8 °C 1020.9 hPa SSE 7.2 km/h 11.3 km/h 52.4% 0.0 mm
10:49 12.3 °C 2.7 °C 1020.9 hPa SSO 6.5 km/h 9.7 km/h 51.8% 0.0 mm
10:54 12.4 °C 2.7 °C 1021.0 hPa SO 5.4 km/h 8 km/h 51.5% 0.0 mm
10:59 12.5 °C 2.7 °C 1021.0 hPa SSO 4.7 km/h 8.4 km/h 51.2% 0.0 mm
11:04 12.7 °C 2.8 °C 1021.0 hPa SSO 4.8 km/h 11.1 km/h 51% 0.0 mm
11:09 12.7 °C 2.8 °C 1021.0 hPa SSO 5 km/h 11.3 km/h 51% 0.0 mm
11:14 12.8 °C 2.9 °C 1021.0 hPa SO 5.5 km/h 9.7 km/h 51.1% 0.0 mm
11:19 12.9 °C 2.8 °C 1021.0 hPa SO 5.8 km/h 10 km/h 50.3% 0.0 mm
11:24 13.1 °C 2.7 °C 1021.0 hPa SO 5.8 km/h 9.7 km/h 49.4% 0.0 mm
11:29 13.2 °C 2.7 °C 1020.8 hPa SO 5.8 km/h 9.7 km/h 48.8% 0.0 mm
11:34 13.3 °C 2.8 °C 1020.8 hPa SSO 5.8 km/h 11.1 km/h 49% 0.0 mm
11:39 13.4 °C 2.9 °C 1020.8 hPa SO 5.8 km/h 11.3 km/h 49% 0.0 mm
11:44 13.4 °C 2.9 °C 1020.7 hPa OSO 5.8 km/h 11.1 km/h 48.9% 0.0 mm
11:49 13.5 °C 3 °C 1020.7 hPa SO 5.8 km/h 11.3 km/h 49% 0.0 mm
11:54 13.5 °C 3 °C 1020.7 hPa SO 6.4 km/h 13.7 km/h 49% 0.0 mm
11:59 13.5 °C 3.2 °C 1020.3 hPa SO 6.9 km/h 14.5 km/h 49.5% 0.0 mm
12:04 13.7 °C 3.1 °C 1020.3 hPa SSO 6.6 km/h 13 km/h 48.9% 0.0 mm
12:09 13.7 °C 3.1 °C 1020.3 hPa SSO 6.5 km/h 14 km/h 48.6% 0.0 mm
12:14 13.8 °C 3 °C 1020.2 hPa SSO 7.8 km/h 14.8 km/h 48.2% 0.0 mm
12:19 13.9 °C 3 °C 1020.2 hPa SO 8.7 km/h 16.7 km/h 47.9% 0.0 mm
12:24 13.9 °C 2.9 °C 1020.2 hPa OSO 8.5 km/h 16.1 km/h 47.3% 0.0 mm
12:29 13.9 °C 3 °C 1019.9 hPa Sur 8.4 km/h 14.8 km/h 47.6% 0.0 mm
12:34 13.9 °C 3.1 °C 1019.9 hPa Sur 8.4 km/h 14.5 km/h 48% 0.0 mm
12:39 14 °C 3.1 °C 1019.9 hPa SSE 8.4 km/h 13.7 km/h 47.8% 0.0 mm
12:44 14.2 °C 3.2 °C 1019.3 hPa Sur 8.4 km/h 14.5 km/h 47.4% 0.0 mm
12:49 14.3 °C 3.1 °C 1019.3 hPa SSE 8.4 km/h 14.8 km/h 47% 0.0 mm
12:54 14.5 °C 3.3 °C 1019.3 hPa SSO 7.9 km/h 20.1 km/h 46.8% 0.0 mm
12:59 14.8 °C 2.8 °C 1018.9 hPa OSO 7.6 km/h 25.6 km/h 44.2% 0.0 mm
13:04 15.2 °C 2.6 °C 1018.9 hPa OSO 11.1 km/h 27 km/h 42.8% 0.0 mm
13:09 15.3 °C 2.6 °C 1019.1 hPa Oeste 13.7 km/h 27.4 km/h 42.4% 0.0 mm
13:14 15.3 °C 2.4 °C 1019.1 hPa ONO 13.3 km/h 20.9 km/h 42% 0.0 mm
13:19 15.2 °C 2.3 °C 1019.1 hPa Oeste 13 km/h 21.7 km/h 42% 0.0 mm
13:24 15.3 °C 2.3 °C 1019.1 hPa Oeste 11.9 km/h 22.5 km/h 41.6% 0.0 mm
13:29 15.5 °C 2.1 °C 1018.5 hPa ONO 11.1 km/h 24.1 km/h 40.5% 0.0 mm
13:34 15.6 °C 2 °C 1018.5 hPa Oeste 11.1 km/h 27.8 km/h 39.8% 0.0 mm
13:39 15.6 °C 2 °C 1018.5 hPa ONO 11.1 km/h 27.8 km/h 39.9% 0.0 mm
13:44 15.7 °C 2.1 °C 1017.9 hPa Oeste 13.3 km/h 27.4 km/h 40% 0.0 mm
13:49 15.8 °C 1.9 °C 1017.9 hPa Oeste 14.8 km/h 24.1 km/h 39.3% 0.0 mm
13:54 15.8 °C 1.8 °C 1017.9 hPa Oeste 13.8 km/h 24.1 km/h 39% 0.0 mm
13:59 15.8 °C 2.2 °C 1017.5 hPa Oeste 13 km/h 24.1 km/h 39.8% 0.0 mm
14:04 15.9 °C 2 °C 1017.5 hPa Oeste 13 km/h 29.6 km/h 39.3% 0.0 mm
14:09 15.9 °C 2.1 °C 1017.5 hPa Oeste 13 km/h 35.2 km/h 39.6% 0.0 mm
14:14 15.8 °C 2.2 °C 1017.5 hPa ONO 17.2 km/h 35.4 km/h 40% 0.0 mm
14:19 15.7 °C 2.4 °C 1017.5 hPa Oeste 20.1 km/h 33.8 km/h 40.8% 0.0 mm
14:24 15.7 °C 2.4 °C 1017.5 hPa Oeste 17.8 km/h 29 km/h 41.1% 0.0 mm
14:29 15.7 °C 2.5 °C 1017.2 hPa Oeste 16.1 km/h 25.9 km/h 41.1% 0.0 mm
14:34 15.7 °C 2.8 °C 1017.2 hPa Oeste 14.7 km/h 25.9 km/h 42% 0.0 mm
14:39 15.7 °C 2.8 °C 1017.2 hPa ONO 13.7 km/h 33.3 km/h 42% 0.0 mm
14:44 15.7 °C 3.1 °C 1016.9 hPa Oeste 14.8 km/h 33.8 km/h 42.8% 0.0 mm
14:49 15.7 °C 3.2 °C 1016.9 hPa Oeste 15.6 km/h 29.1 km/h 43% 0.0 mm
14:54 15.7 °C 3 °C 1016.9 hPa Oeste 14.1 km/h 29.6 km/h 42.5% 0.0 mm
14:59 15.7 °C 3.1 °C 1016.6 hPa Oeste 13 km/h 30.6 km/h 42.8% 0.0 mm
15:04 15.7 °C 3.2 °C 1016.6 hPa Oeste 15.1 km/h 34.6 km/h 43.1% 0.0 mm
15:09 15.5 °C 3.2 °C 1016.6 hPa Oeste 16.4 km/h 38.1 km/h 43.5% 0.0 mm
15:14 15.5 °C 3.1 °C 1016.4 hPa Oeste 19 km/h 38.9 km/h 43.6% 0.0 mm
15:19 15.4 °C 3.1 °C 1016.4 hPa Oeste 20.9 km/h 38.6 km/h 43.5% 0.0 mm
15:24 15.4 °C 3.2 °C 1016.4 hPa Oeste 20.9 km/h 37 km/h 44% 0.0 mm
15:29 15.2 °C 3 °C 1016.2 hPa ONO 20.9 km/h 39.6 km/h 44% 0.0 mm
15:34 15.1 °C 3.2 °C 1016.2 hPa ONO 21.4 km/h 40.2 km/h 45% 0.0 mm
15:39 15.1 °C 3.2 °C 1016.2 hPa ONO 21.7 km/h 35.4 km/h 45% 0.0 mm
15:44 15 °C 3.2 °C 1016.2 hPa ONO 20.6 km/h 35.4 km/h 45.2% 0.0 mm
15:49 14.9 °C 3.4 °C 1016.2 hPa ONO 19.8 km/h 37 km/h 46% 0.0 mm
15:54 14.9 °C 3.4 °C 1016.2 hPa ONO 20.9 km/h 37 km/h 46% 0.0 mm
15:59 14.8 °C 3.3 °C 1016.0 hPa ONO 21.7 km/h 37 km/h 46% 0.0 mm
16:04 14.8 °C 3.5 °C 1016.0 hPa ONO 19.8 km/h 40.7 km/h 46.7% 0.0 mm
16:09 14.8 °C 3.6 °C 1016.3 hPa ONO 18.4 km/h 40.7 km/h 47% 0.0 mm
16:14 14.8 °C 3.6 °C 1016.3 hPa ONO 18.2 km/h 40.2 km/h 47% 0.0 mm
16:19 14.8 °C 3.6 °C 1016.3 hPa ONO 18 km/h 29.8 km/h 47% 0.0 mm
16:24 14.8 °C 3.6 °C 1016.3 hPa ONO 18 km/h 30.6 km/h 47% 0.0 mm
16:29 14.8 °C 3.6 °C 1016.3 hPa ONO 18 km/h 30.6 km/h 47% 0.0 mm
16:34 14.9 °C 3.7 °C 1016.3 hPa ONO 17.6 km/h 31.5 km/h 47% 0.0 mm
16:39 14.9 °C 3.7 °C 1016.3 hPa ONO 17.2 km/h 32.2 km/h 47% 0.0 mm
16:44 14.9 °C 3.7 °C 1016.1 hPa ONO 16.6 km/h 25.9 km/h 47% 0.0 mm
16:49 14.9 °C 3.7 °C 1016.1 hPa ONO 16.1 km/h 25.7 km/h 47% 0.0 mm
16:54 14.9 °C 3.7 °C 1016.1 hPa ONO 15.3 km/h 24.1 km/h 47% 0.0 mm
16:59 14.9 °C 3.7 °C 1016.1 hPa ONO 14.8 km/h 22.5 km/h 47% 0.0 mm
17:04 14.9 °C 3.7 °C 1016.1 hPa ONO 13.3 km/h 20.9 km/h 47% 0.0 mm
17:09 14.9 °C 3.7 °C 1016.1 hPa ONO 12.2 km/h 19 km/h 47% 0.0 mm
17:14 14.9 °C 3.7 °C 1016.0 hPa ONO 12 km/h 19.3 km/h 47% 0.0 mm
17:19 14.9 °C 3.7 °C 1016.0 hPa ONO 11.9 km/h 17.7 km/h 47% 0.0 mm
17:24 14.9 °C 3.7 °C 1016.0 hPa ONO 11 km/h 16.7 km/h 47% 0.0 mm
17:29 14.9 °C 3.7 °C 1015.8 hPa ONO 10.3 km/h 17.2 km/h 47% 0.0 mm
17:34 14.9 °C 3.5 °C 1015.8 hPa ONO 10.3 km/h 17.7 km/h 46.6% 0.0 mm
17:39 14.9 °C 3.4 °C 1015.9 hPa Oeste 10.3 km/h 24.1 km/h 46% 0.0 mm
17:44 15.1 °C 3.5 °C 1015.9 hPa Oeste 10.8 km/h 24.1 km/h 46% 0.0 mm
17:49 15 °C 3.5 °C 1015.9 hPa OSO 11.1 km/h 17.2 km/h 46% 0.0 mm
17:54 14.9 °C 3.5 °C 1016.0 hPa SO 8.7 km/h 17.7 km/h 46.2% 0.0 mm
17:59 14.8 °C 3.8 °C 1016.0 hPa SO 6.9 km/h 11.3 km/h 47.7% 0.0 mm
18:04 14.7 °C 3.8 °C 1016.0 hPa Oeste 6.2 km/h 9.7 km/h 48% 0.0 mm
18:09 14.6 °C 3.7 °C 1016.0 hPa Oeste 5.8 km/h 11.1 km/h 48% 0.0 mm
18:14 14.6 °C 3.7 °C 1015.9 hPa ONO 5.8 km/h 11.3 km/h 48% 0.0 mm
18:19 14.6 °C 3.7 °C 1015.9 hPa Oeste 5.8 km/h 16.7 km/h 48% 0.0 mm
18:24 14.6 °C 3.9 °C 1015.9 hPa Oeste 6.8 km/h 16.1 km/h 48.6% 0.0 mm
18:29 14.4 °C 3.8 °C 1015.5 hPa OSO 7.6 km/h 10 km/h 49% 0.0 mm
18:34 14.4 °C 3.8 °C 1015.5 hPa OSO 6.5 km/h 11.1 km/h 49% 0.0 mm
18:39 14.4 °C 3.8 °C 1015.5 hPa SO 5.8 km/h 11.3 km/h 49% 0.0 mm
18:44 14.4 °C 3.8 °C 1015.1 hPa SSO 5.8 km/h 8.4 km/h 49% 0.0 mm
18:49 14.3 °C 4 °C 1015.1 hPa Sur 5.8 km/h 13.7 km/h 49.8% 0.0 mm
18:54 14.2 °C 4.2 °C 1015.1 hPa Sur 7.3 km/h 14.5 km/h 51% 0.0 mm
18:59 14.1 °C 4.3 °C 1014.9 hPa Sur 8.4 km/h 12.9 km/h 52% 0.0 mm
19:04 13.9 °C 4.4 °C 1014.9 hPa Sur 7.5 km/h 10.3 km/h 52.8% 0.0 mm
19:09 13.8 °C 4.5 °C 1014.9 hPa Sur 6.9 km/h 11.3 km/h 53.5% 0.0 mm
19:14 13.6 °C 4.5 °C 1014.7 hPa Sur 7.3 km/h 11.3 km/h 54% 0.0 mm
19:19 13.6 °C 4.4 °C 1014.7 hPa Sur 7.6 km/h 11.3 km/h 54% 0.0 mm
19:24 13.6 °C 4.4 °C 1014.7 hPa SSO 7.2 km/h 11.3 km/h 54% 0.0 mm
19:29 13.6 °C 4.4 °C 1014.7 hPa SSO 6.9 km/h 11.3 km/h 54% 0.0 mm
19:34 13.7 °C 4.4 °C 1014.7 hPa SO 6.7 km/h 10 km/h 53.4% 0.0 mm
19:39 13.8 °C 4.3 °C 1014.7 hPa SSO 6.5 km/h 9.7 km/h 53% 0.0 mm
19:44 13.8 °C 4.3 °C 1014.5 hPa SSO 6.1 km/h 11.9 km/h 52.8% 0.0 mm
19:49 13.9 °C 4.2 °C 1014.5 hPa SSO 5.8 km/h 12.2 km/h 52% 0.0 mm
19:54 13.9 °C 4.2 °C 1014.5 hPa SO 6.8 km/h 13 km/h 51.8% 0.0 mm
19:59 13.9 °C 3.9 °C 1014.1 hPa SSO 7.6 km/h 17.2 km/h 50.9% 0.0 mm
20:04 13.9 °C 3.8 °C 1014.1 hPa SSO 8.3 km/h 18.5 km/h 50.5% 0.0 mm
20:09 13.9 °C 3.6 °C 1014.1 hPa SO 8.7 km/h 19.8 km/h 50% 0.0 mm
20:14 13.9 °C 3.7 °C 1014.0 hPa SO 9.6 km/h 22.2 km/h 50% 0.0 mm
20:19 14 °C 3.7 °C 1014.0 hPa SSO 10.3 km/h 22.5 km/h 50% 0.0 mm
20:24 14 °C 3.9 °C 1014.1 hPa SO 10.8 km/h 20.9 km/h 50.6% 0.0 mm
20:29 13.9 °C 4 °C 1014.1 hPa SSO 11.1 km/h 20.4 km/h 51% 0.0 mm
20:34 13.9 °C 3.9 °C 1014.1 hPa SO 11.1 km/h 20.9 km/h 51% 0.0 mm
20:39 13.9 °C 3.9 °C 1014.1 hPa SO 11.1 km/h 22 km/h 51% 0.0 mm
20:44 13.9 °C 4.2 °C 1014.1 hPa SO 10.6 km/h 22.5 km/h 51.8% 0.0 mm
20:49 13.8 °C 4.1 °C 1014.1 hPa SO 10.3 km/h 16.1 km/h 52% 0.0 mm
20:54 13.7 °C 4.2 °C 1014.1 hPa SSO 9.4 km/h 17.2 km/h 52.5% 0.0 mm
20:59 13.7 °C 4.3 °C 1013.8 hPa Sur 8.7 km/h 17.7 km/h 53% 0.0 mm
21:04 13.6 °C 4.2 °C 1013.8 hPa SO 7.6 km/h 11.3 km/h 53.1% 0.0 mm
21:09 13.6 °C 4.4 °C 1013.8 hPa SO 6.9 km/h 9.7 km/h 54% 0.0 mm
21:14 13.5 °C 4.4 °C 1013.8 hPa OSO 5.2 km/h 8 km/h 54% 0.0 mm
21:19 13.4 °C 4.3 °C 1013.8 hPa Oeste 3.9 km/h 9.3 km/h 54% 0.0 mm
21:24 13.4 °C 4.4 °C 1013.8 hPa OSO 3.9 km/h 9.7 km/h 54.3% 0.0 mm
21:29 13.3 °C 4.4 °C 1013.6 hPa OSO 3.9 km/h 6.4 km/h 55% 0.0 mm
21:34 13.3 °C 4.4 °C 1013.6 hPa SO 2.9 km/h 7.4 km/h 55% 0.0 mm
21:39 13.3 °C 4.3 °C 1013.6 hPa SSO 2.2 km/h 8.4 km/h 54.6% 0.0 mm
21:44 13.3 °C 4.4 °C 1013.5 hPa SSO 2.8 km/h 8 km/h 55% 0.0 mm
21:49 13.3 °C 4.6 °C 1013.5 hPa SSO 3.2 km/h 4.7 km/h 55.6% 0.0 mm
21:54 13.2 °C 4.6 °C 1013.7 hPa SSO 2.7 km/h 5.6 km/h 56% 0.0 mm
21:59 13.1 °C 4.5 °C 1013.7 hPa SO 2.2 km/h 8.4 km/h 56% 0.0 mm
22:04 13.1 °C 4.5 °C 1013.7 hPa OSO 2.6 km/h 8 km/h 56% 0.0 mm
22:09 13.1 °C 4.5 °C 1013.9 hPa SO 2.9 km/h 9.3 km/h 56% 0.0 mm
22:14 13.1 °C 4.5 °C 1013.9 hPa OSO 3.1 km/h 9.7 km/h 56% 0.0 mm
22:19 13.1 °C 4.7 °C 1013.9 hPa ONO 3.2 km/h 8 km/h 56.6% 0.0 mm
22:24 13 °C 4.8 °C 1013.9 hPa North 3 km/h 6.4 km/h 57.7% 0.0 mm
22:29 12.7 °C 4.7 °C 1013.8 hPa NE 2.9 km/h 6.4 km/h 58.2% 0.0 mm
22:34 12.6 °C 4.8 °C 1013.8 hPa NE 2.9 km/h 4.8 km/h 59% 0.0 mm
22:39 12.4 °C 4.9 °C 1013.8 hPa NE 2.9 km/h 1.6 km/h 59.9% 0.0 mm
22:44 12.4 °C 4.8 °C 1013.5 hPa NE 1.2 km/h   59.9% 0.0 mm
22:49 12.4 °C 4.6 °C 1013.5 hPa Calm   3.7 km/h 59% 0.0 mm
22:54 12.4 °C 4.6 °C 1013.5 hPa Calm   5 km/h 59% 0.0 mm
22:59 12.4 °C 4.7 °C 1013.4 hPa Calm   5.6 km/h 59% 0.0 mm
23:04 12.6 °C 4.8 °C 1013.4 hPa Sur 1.9 km/h 5.8 km/h 59% 0.0 mm
23:09 12.6 °C 5 °C 1013.4 hPa SSE 3.2 km/h 7.6 km/h 59.8% 0.0 mm
23:14 12.6 °C 5.1 °C 1012.8 hPa SSE 4.1 km/h 8 km/h 60.1% 0.0 mm
23:19 12.6 °C 5.2 °C 1012.8 hPa SE 4.7 km/h 7.4 km/h 61% 0.0 mm
23:24 12.4 °C 5.1 °C 1012.8 hPa ESE 3.8 km/h 8 km/h 61% 0.0 mm
23:29 12.3 °C 5.1 °C 1012.7 hPa ESE 3.2 km/h 8 km/h 61.6% 0.0 mm
23:34 12.2 °C 5.1 °C 1012.7 hPa ESE 3.2 km/h 6.4 km/h 61.9% 0.0 mm
23:39 12.1 °C 5 °C 1012.8 hPa ESE 3.2 km/h 4.8 km/h 62% 0.0 mm
23:44 12 °C 5 °C 1012.8 hPa ESE 1.4 km/h 7.4 km/h 62% 0.0 mm
23:49 12 °C 5.1 °C 1012.8 hPa Calm   8 km/h 62.5% 0.0 mm
23:54 12.1 °C 5.2 °C 1012.8 hPa SO 2.9 km/h 9.5 km/h 63% 0.0 mm
23:59 12.2 °C 5.3 °C 1012.4 hPa SO 5 km/h 11.9 km/h 63% 0.0 mm
Murcia-Puente Tocinos, España
Compliments of Weather Underground - 3 mb

La estación de MeteoMurcia.com, publica sus datos en los siguientes proyectos:

Weather Underground PWS IMURCIAP2 Meteoclimatic www.awekas.at

W3Counter
Web Analytics